Airfield :
LOGIN :

Register | Disclaimer

   EN    FR    IT 

 










Legend :    VFR   Marginal VFR   IFR   Intensive IFR   Very Intensive IFR
Visi :
Ceiling :
>= 8 km
>= 3000ft
5 to 8 km
1000 to 3000 ft
1500m to 5 km
500 to 1000 ft
800 to 1500m
200 to 500 ft
< 800m
< 200 ft
Symbols :   Thunderstorms  Fog  Heavy snow  Heavy precipitations  Wind > 20 kt
SIGMETs :     Misc.  Thunderstorms  Icing  Turbulence  Mountain Waves  Volcanic Ashes






- Airport Elevation : 19 ft
- IATA code : LCY


EGLC - London City

CURRENT METAR :
  • 190820Z AUTO VRB03KT 9999 BKN014 OVC019 14/11 Q1016

EXPIRED METARs :
  • 190750Z AUTO 36004KT 320V030 9999 -RA OVC008 13/11 Q1016
  • 190720Z AUTO 36005KT 320V040 9999 FEW008 OVC017 13/12 Q1016
  • 190650Z AUTO 35004KT 310V030 9999 SCT007 BKN012 OVC017 13/11 Q1016
  • 190620Z AUTO 30005KT 280V360 9999 BKN007 BKN012 OVC020 13/11 Q1016
  • 190550Z AUTO 34005KT 290V010 9999 FEW009 SCT012 OVC022 13/11 Q1016

TAF TAF EGLC
Valid from the 19 at 09:00 until the 19 at 12:00 UTC


190759Z 1909/1912 05004KT 9999 BKN008
BECMG 1909/1912 BKN020
ATIS : +44 20 7646 0224



MET'MAP, your aeronautical weather chart ! - Copyright ORBIFLY December 2007 - Disclaimer

ORBIFLY MET'MAP TEAM :

Programming & Development : Alexandra Zaïnal
Concept & original design : Baudouin d'Aumeries
Assistance for programming : Marc-Olivier Méhu
Technical & hardware support : Manuel Goepfert

Contact : metmap@orbifly.com




SOURCES & CREDITS :

   NOAA